Terminal Aerodrome Forecast
Issued by NWS

Home | Current Version | Previous Version | Text Only | Print | Product List | Glossary On
Versions: 1 2 3 4 5 6 7 8 9 10 11 12 13 14 15 16 17 18 19 20 21 22 23 24 25 26 27 28 29 30 31 32 33 34 35 36 37 38 39 40
981
FTUS44 KHGX 211257 AAA
TAFUTS
TAF AMD
KUTS 211257Z 2113/2212 16004KT 6SM BR FEW016
     FM211500 17007KT P6SM BKN020
     FM211800 17007KT P6SM VCTS BKN035CB
     FM212200 15007KT P6SM BKN050 BKN250
     FM220200 15005KT P6SM BKN250
     FM220900 15003KT P6SM SCT015=

USA.gov is the U.S. government's official web portal to all federal, state and local government web resources and services.